sensor_id;sensor_type;location;lat;lon;timestamp;temperature;humidity
16966;DHT22;8599;47.852;12.070;2023-09-12T00:00:11;20.30;99.90
16966;DHT22;8599;47.852;12.070;2023-09-12T00:02:38;20.40;99.90
16966;DHT22;8599;47.852;12.070;2023-09-12T00:05:06;20.30;99.90
16966;DHT22;8599;47.852;12.070;2023-09-12T00:07:34;20.30;99.90
16966;DHT22;8599;47.852;12.070;2023-09-12T00:10:01;20.10;99.90
16966;DHT22;8599;47.852;12.070;2023-09-12T00:12:28;19.90;99.90
16966;DHT22;8599;47.852;12.070;2023-09-12T00:14:55;19.70;99.90
16966;DHT22;8599;47.852;12.070;2023-09-12T00:17:23;19.70;99.90
16966;DHT22;8599;47.852;12.070;2023-09-12T00:19:52;19.80;99.90
16966;DHT22;8599;47.852;12.070;2023-09-12T00:22:19;19.80;99.90
16966;DHT22;8599;47.852;12.070;2023-09-12T00:24:45;19.90;99.90
16966;DHT22;8599;47.852;12.070;2023-09-12T00:27:11;19.90;99.90
16966;DHT22;8599;47.852;12.070;2023-09-12T00:29:38;20.00;99.90
16966;DHT22;8599;47.852;12.070;2023-09-12T00:32:05;20.10;99.90
16966;DHT22;8599;47.852;12.070;2023-09-12T00:34:33;20.00;99.90
16966;DHT22;8599;47.852;12.070;2023-09-12T00:37:00;19.90;99.90
16966;DHT22;8599;47.852;12.070;2023-09-12T00:39:27;19.90;99.90
16966;DHT22;8599;47.852;12.070;2023-09-12T00:41:54;19.90;99.90
16966;DHT22;8599;47.852;12.070;2023-09-12T00:44:20;20.00;99.90
16966;DHT22;8599;47.852;12.070;2023-09-12T00:46:48;20.00;99.90
16966;DHT22;8599;47.852;12.070;2023-09-12T00:49:16;20.00;99.90
16966;DHT22;8599;47.852;12.070;2023-09-12T00:51:45;20.10;99.90
16966;DHT22;8599;47.852;12.070;2023-09-12T00:54:12;20.00;99.90
16966;DHT22;8599;47.852;12.070;2023-09-12T00:56:39;20.00;99.90
16966;DHT22;8599;47.852;12.070;2023-09-12T00:59:06;20.00;99.90
16966;DHT22;8599;47.852;12.070;2023-09-12T01:01:34;19.90;99.90
16966;DHT22;8599;47.852;12.070;2023-09-12T01:04:01;19.90;99.90
16966;DHT22;8599;47.852;12.070;2023-09-12T01:06:29;19.80;99.90
16966;DHT22;8599;47.852;12.070;2023-09-12T01:08:58;19.80;99.90
16966;DHT22;8599;47.852;12.070;2023-09-12T01:11:26;19.80;99.90
16966;DHT22;8599;47.852;12.070;2023-09-12T01:13:54;19.80;99.90
16966;DHT22;8599;47.852;12.070;2023-09-12T01:16:20;19.80;99.90
16966;DHT22;8599;47.852;12.070;2023-09-12T01:18:47;19.80;99.90
16966;DHT22;8599;47.852;12.070;2023-09-12T01:24:40;19.80;99.90
16966;DHT22;8599;47.852;12.070;2023-09-12T01:27:22;19.90;99.90
16966;DHT22;8599;47.852;12.070;2023-09-12T01:29:56;19.80;99.90
16966;DHT22;8599;47.852;12.070;2023-09-12T01:32:23;19.80;99.90
16966;DHT22;8599;47.852;12.070;2023-09-12T01:34:50;19.80;99.90
16966;DHT22;8599;47.852;12.070;2023-09-12T01:37:17;19.80;99.90
16966;DHT22;8599;47.852;12.070;2023-09-12T01:39:44;19.80;99.90
16966;DHT22;8599;47.852;12.070;2023-09-12T01:42:18;19.60;99.90
16966;DHT22;8599;47.852;12.070;2023-09-12T01:44:51;19.40;99.90
16966;DHT22;8599;47.852;12.070;2023-09-12T01:47:21;19.20;99.90
16966;DHT22;8599;47.852;12.070;2023-09-12T01:49:51;19.00;99.90
16966;DHT22;8599;47.852;12.070;2023-09-12T01:52:18;19.10;99.90
16966;DHT22;8599;47.852;12.070;2023-09-12T01:54:47;19.20;99.90
16966;DHT22;8599;47.852;12.070;2023-09-12T01:57:14;19.20;99.90
16966;DHT22;8599;47.852;12.070;2023-09-12T01:59:42;19.20;99.90
16966;DHT22;8599;47.852;12.070;2023-09-12T02:02:10;18.90;99.90
16966;DHT22;8599;47.852;12.070;2023-09-12T02:04:37;18.90;99.90
16966;DHT22;8599;47.852;12.070;2023-09-12T02:07:04;18.90;99.90
16966;DHT22;8599;47.852;12.070;2023-09-12T02:09:30;19.00;99.90
16966;DHT22;8599;47.852;12.070;2023-09-12T02:11:57;19.10;99.90
16966;DHT22;8599;47.852;12.070;2023-09-12T02:14:24;19.10;99.90
16966;DHT22;8599;47.852;12.070;2023-09-12T02:16:51;19.20;99.90
16966;DHT22;8599;47.852;12.070;2023-09-12T02:19:19;19.20;99.90
16966;DHT22;8599;47.852;12.070;2023-09-12T02:21:46;19.10;99.90
16966;DHT22;8599;47.852;12.070;2023-09-12T02:24:12;19.00;99.90
16966;DHT22;8599;47.852;12.070;2023-09-12T02:26:39;18.70;99.90
16966;DHT22;8599;47.852;12.070;2023-09-12T02:29:06;18.70;99.90
16966;DHT22;8599;47.852;12.070;2023-09-12T02:31:33;18.60;99.90
16966;DHT22;8599;47.852;12.070;2023-09-12T02:33:59;18.50;99.90
16966;DHT22;8599;47.852;12.070;2023-09-12T02:36:28;18.50;99.90
16966;DHT22;8599;47.852;12.070;2023-09-12T02:38:55;18.50;99.90
16966;DHT22;8599;47.852;12.070;2023-09-12T02:41:21;18.40;99.90
16966;DHT22;8599;47.852;12.070;2023-09-12T02:43:49;18.40;99.90
16966;DHT22;8599;47.852;12.070;2023-09-12T02:46:15;18.60;99.90
16966;DHT22;8599;47.852;12.070;2023-09-12T02:48:42;18.50;99.90
16966;DHT22;8599;47.852;12.070;2023-09-12T02:51:09;18.70;99.90
16966;DHT22;8599;47.852;12.070;2023-09-12T02:53:37;18.60;99.90
16966;DHT22;8599;47.852;12.070;2023-09-12T02:56:04;18.60;99.90
16966;DHT22;8599;47.852;12.070;2023-09-12T02:58:31;18.70;99.90
16966;DHT22;8599;47.852;12.070;2023-09-12T03:00:58;18.70;99.90
16966;DHT22;8599;47.852;12.070;2023-09-12T03:03:25;18.70;99.90
16966;DHT22;8599;47.852;12.070;2023-09-12T03:05:58;18.60;99.90
16966;DHT22;8599;47.852;12.070;2023-09-12T03:08:24;18.70;99.90
16966;DHT22;8599;47.852;12.070;2023-09-12T03:10:55;18.70;99.90
16966;DHT22;8599;47.852;12.070;2023-09-12T03:13:23;18.80;99.90
16966;DHT22;8599;47.852;12.070;2023-09-12T03:15:50;18.90;99.90
16966;DHT22;8599;47.852;12.070;2023-09-12T03:18:17;18.90;99.90
16966;DHT22;8599;47.852;12.070;2023-09-12T03:20:43;18.80;99.90
16966;DHT22;8599;47.852;12.070;2023-09-12T03:23:10;18.70;99.90
16966;DHT22;8599;47.852;12.070;2023-09-12T03:25:38;18.70;99.90
16966;DHT22;8599;47.852;12.070;2023-09-12T03:28:07;18.70;99.90
16966;DHT22;8599;47.852;12.070;2023-09-12T03:30:35;18.60;99.90
16966;DHT22;8599;47.852;12.070;2023-09-12T03:33:02;18.60;99.90
16966;DHT22;8599;47.852;12.070;2023-09-12T03:35:30;18.50;99.90
16966;DHT22;8599;47.852;12.070;2023-09-12T03:37:57;18.40;99.90
16966;DHT22;8599;47.852;12.070;2023-09-12T03:40:24;18.40;99.90
16966;DHT22;8599;47.852;12.070;2023-09-12T03:42:51;18.40;99.90
16966;DHT22;8599;47.852;12.070;2023-09-12T03:45:19;18.40;99.90
16966;DHT22;8599;47.852;12.070;2023-09-12T03:47:46;18.40;99.90
16966;DHT22;8599;47.852;12.070;2023-09-12T03:50:13;18.50;99.90
16966;DHT22;8599;47.852;12.070;2023-09-12T03:52:40;18.40;99.90
16966;DHT22;8599;47.852;12.070;2023-09-12T03:55:07;18.40;99.90
16966;DHT22;8599;47.852;12.070;2023-09-12T03:57:34;18.40;99.90
16966;DHT22;8599;47.852;12.070;2023-09-12T04:00:01;18.40;99.90
16966;DHT22;8599;47.852;12.070;2023-09-12T04:02:31;18.50;99.90
16966;DHT22;8599;47.852;12.070;2023-09-12T04:04:58;18.40;99.90
16966;DHT22;8599;47.852;12.070;2023-09-12T04:07:25;18.30;99.90
16966;DHT22;8599;47.852;12.070;2023-09-12T04:09:52;18.40;99.90
16966;DHT22;8599;47.852;12.070;2023-09-12T04:12:19;18.40;99.90
16966;DHT22;8599;47.852;12.070;2023-09-12T04:14:46;18.40;99.90
16966;DHT22;8599;47.852;12.070;2023-09-12T04:17:12;18.30;99.90
16966;DHT22;8599;47.852;12.070;2023-09-12T04:19:40;18.30;99.90
16966;DHT22;8599;47.852;12.070;2023-09-12T04:22:07;18.30;99.90
16966;DHT22;8599;47.852;12.070;2023-09-12T04:24:34;18.30;99.90
16966;DHT22;8599;47.852;12.070;2023-09-12T04:27:01;18.20;99.90
16966;DHT22;8599;47.852;12.070;2023-09-12T04:29:28;18.20;99.90
16966;DHT22;8599;47.852;12.070;2023-09-12T04:31:55;18.20;99.90
16966;DHT22;8599;47.852;12.070;2023-09-12T04:34:25;18.30;99.90
16966;DHT22;8599;47.852;12.070;2023-09-12T04:36:53;18.30;99.90
16966;DHT22;8599;47.852;12.070;2023-09-12T04:39:20;18.50;99.90
16966;DHT22;8599;47.852;12.070;2023-09-12T04:41:47;18.50;99.90
16966;DHT22;8599;47.852;12.070;2023-09-12T04:44:14;18.50;99.90
16966;DHT22;8599;47.852;12.070;2023-09-12T04:46:41;18.50;99.90
16966;DHT22;8599;47.852;12.070;2023-09-12T04:49:07;18.50;99.90
16966;DHT22;8599;47.852;12.070;2023-09-12T04:51:34;18.50;99.90
16966;DHT22;8599;47.852;12.070;2023-09-12T04:54:03;18.50;99.90
16966;DHT22;8599;47.852;12.070;2023-09-12T04:56:30;18.20;99.90
16966;DHT22;8599;47.852;12.070;2023-09-12T04:58:56;17.90;99.90
16966;DHT22;8599;47.852;12.070;2023-09-12T05:01:23;18.00;99.90
16966;DHT22;8599;47.852;12.070;2023-09-12T05:03:51;17.90;99.90
16966;DHT22;8599;47.852;12.070;2023-09-12T05:06:17;17.80;99.90
16966;DHT22;8599;47.852;12.070;2023-09-12T05:08:44;17.80;99.90
16966;DHT22;8599;47.852;12.070;2023-09-12T05:11:12;17.80;99.90
16966;DHT22;8599;47.852;12.070;2023-09-12T05:13:39;17.80;99.90
16966;DHT22;8599;47.852;12.070;2023-09-12T05:16:06;17.80;99.90
16966;DHT22;8599;47.852;12.070;2023-09-12T05:18:33;17.70;99.90
16966;DHT22;8599;47.852;12.070;2023-09-12T05:21:00;17.80;99.90
16966;DHT22;8599;47.852;12.070;2023-09-12T05:23:27;17.70;99.90
16966;DHT22;8599;47.852;12.070;2023-09-12T05:25:53;17.70;99.90
16966;DHT22;8599;47.852;12.070;2023-09-12T05:28:22;17.80;99.90
16966;DHT22;8599;47.852;12.070;2023-09-12T05:30:48;17.80;99.90
16966;DHT22;8599;47.852;12.070;2023-09-12T05:33:17;17.80;99.90
16966;DHT22;8599;47.852;12.070;2023-09-12T05:35:43;17.90;99.90
16966;DHT22;8599;47.852;12.070;2023-09-12T05:38:10;17.80;99.90
16966;DHT22;8599;47.852;12.070;2023-09-12T05:40:37;17.90;99.90
16966;DHT22;8599;47.852;12.070;2023-09-12T05:43:04;18.00;99.90
16966;DHT22;8599;47.852;12.070;2023-09-12T05:45:32;18.10;99.90
16966;DHT22;8599;47.852;12.070;2023-09-12T05:47:59;18.30;99.90
16966;DHT22;8599;47.852;12.070;2023-09-12T05:50:26;18.30;99.90
16966;DHT22;8599;47.852;12.070;2023-09-12T05:52:52;18.30;99.90
16966;DHT22;8599;47.852;12.070;2023-09-12T05:55:19;18.40;99.90
16966;DHT22;8599;47.852;12.070;2023-09-12T05:57:46;18.30;99.90
16966;DHT22;8599;47.852;12.070;2023-09-12T06:00:17;18.30;99.90
16966;DHT22;8599;47.852;12.070;2023-09-12T06:02:46;18.20;99.90
16966;DHT22;8599;47.852;12.070;2023-09-12T06:05:13;18.20;99.90
16966;DHT22;8599;47.852;12.070;2023-09-12T06:07:40;18.20;99.90
16966;DHT22;8599;47.852;12.070;2023-09-12T06:10:08;18.30;99.90
16966;DHT22;8599;47.852;12.070;2023-09-12T06:12:35;18.40;99.90
16966;DHT22;8599;47.852;12.070;2023-09-12T06:15:02;18.40;99.90
16966;DHT22;8599;47.852;12.070;2023-09-12T06:17:29;18.60;99.90
16966;DHT22;8599;47.852;12.070;2023-09-12T06:19:58;18.70;99.90
16966;DHT22;8599;47.852;12.070;2023-09-12T06:22:25;18.70;99.90
16966;DHT22;8599;47.852;12.070;2023-09-12T06:24:53;18.80;99.90
16966;DHT22;8599;47.852;12.070;2023-09-12T06:27:20;18.90;99.90
16966;DHT22;8599;47.852;12.070;2023-09-12T06:29:47;19.00;99.90
16966;DHT22;8599;47.852;12.070;2023-09-12T06:32:15;19.10;99.90
16966;DHT22;8599;47.852;12.070;2023-09-12T06:34:42;19.10;99.90
16966;DHT22;8599;47.852;12.070;2023-09-12T06:37:11;19.10;99.90
16966;DHT22;8599;47.852;12.070;2023-09-12T06:39:38;19.20;99.90
16966;DHT22;8599;47.852;12.070;2023-09-12T06:42:05;19.30;99.90
16966;DHT22;8599;47.852;12.070;2023-09-12T06:44:32;19.50;99.90
16966;DHT22;8599;47.852;12.070;2023-09-12T06:46:59;19.50;99.90
16966;DHT22;8599;47.852;12.070;2023-09-12T06:49:26;19.60;99.90
16966;DHT22;8599;47.852;12.070;2023-09-12T06:51:52;19.70;99.90
16966;DHT22;8599;47.852;12.070;2023-09-12T06:54:21;19.80;99.90
16966;DHT22;8599;47.852;12.070;2023-09-12T06:56:47;19.90;99.90
16966;DHT22;8599;47.852;12.070;2023-09-12T06:59:14;20.00;99.90
16966;DHT22;8599;47.852;12.070;2023-09-12T07:01:41;20.00;99.90
16966;DHT22;8599;47.852;12.070;2023-09-12T07:04:09;20.10;99.90
16966;DHT22;8599;47.852;12.070;2023-09-12T07:06:35;20.20;99.90
16966;DHT22;8599;47.852;12.070;2023-09-12T07:09:02;20.40;99.90
16966;DHT22;8599;47.852;12.070;2023-09-12T07:11:31;20.30;99.90
16966;DHT22;8599;47.852;12.070;2023-09-12T07:13:58;20.40;99.90
16966;DHT22;8599;47.852;12.070;2023-09-12T07:16:25;20.50;99.90
16966;DHT22;8599;47.852;12.070;2023-09-12T07:18:51;20.60;99.90
16966;DHT22;8599;47.852;12.070;2023-09-12T07:21:19;20.70;99.90
16966;DHT22;8599;47.852;12.070;2023-09-12T07:23:47;20.70;99.90
16966;DHT22;8599;47.852;12.070;2023-09-12T07:26:15;20.80;99.90
16966;DHT22;8599;47.852;12.070;2023-09-12T07:28:43;20.90;99.90
16966;DHT22;8599;47.852;12.070;2023-09-12T07:31:10;21.00;99.90
16966;DHT22;8599;47.852;12.070;2023-09-12T07:33:37;21.00;99.90
16966;DHT22;8599;47.852;12.070;2023-09-12T07:36:04;21.00;99.90
16966;DHT22;8599;47.852;12.070;2023-09-12T07:38:31;21.10;99.90
16966;DHT22;8599;47.852;12.070;2023-09-12T07:41:00;21.10;99.90
16966;DHT22;8599;47.852;12.070;2023-09-12T07:43:28;21.20;99.90
16966;DHT22;8599;47.852;12.070;2023-09-12T07:45:57;21.30;99.90
16966;DHT22;8599;47.852;12.070;2023-09-12T07:48:24;21.30;99.90
16966;DHT22;8599;47.852;12.070;2023-09-12T07:50:51;21.30;99.90
16966;DHT22;8599;47.852;12.070;2023-09-12T07:53:18;21.30;99.90
16966;DHT22;8599;47.852;12.070;2023-09-12T07:55:44;21.30;99.90
16966;DHT22;8599;47.852;12.070;2023-09-12T07:58:12;21.40;99.90
16966;DHT22;8599;47.852;12.070;2023-09-12T08:00:39;21.50;99.90
16966;DHT22;8599;47.852;12.070;2023-09-12T08:03:08;21.50;99.90
16966;DHT22;8599;47.852;12.070;2023-09-12T08:05:35;21.60;99.90
16966;DHT22;8599;47.852;12.070;2023-09-12T08:08:02;21.60;99.90
16966;DHT22;8599;47.852;12.070;2023-09-12T08:10:29;21.70;99.90
16966;DHT22;8599;47.852;12.070;2023-09-12T08:12:56;21.80;99.90
16966;DHT22;8599;47.852;12.070;2023-09-12T08:15:23;22.00;99.90
16966;DHT22;8599;47.852;12.070;2023-09-12T08:17:50;22.00;99.90
16966;DHT22;8599;47.852;12.070;2023-09-12T08:20:20;22.10;99.90
16966;DHT22;8599;47.852;12.070;2023-09-12T08:22:47;22.10;99.90
16966;DHT22;8599;47.852;12.070;2023-09-12T08:25:14;22.00;99.90
16966;DHT22;8599;47.852;12.070;2023-09-12T08:27:41;22.00;99.90
16966;DHT22;8599;47.852;12.070;2023-09-12T08:30:10;22.10;99.90
16966;DHT22;8599;47.852;12.070;2023-09-12T08:32:38;22.20;99.90
16966;DHT22;8599;47.852;12.070;2023-09-12T08:35:09;22.30;99.90
16966;DHT22;8599;47.852;12.070;2023-09-12T08:37:37;22.40;99.90
16966;DHT22;8599;47.852;12.070;2023-09-12T08:40:05;22.40;99.90
16966;DHT22;8599;47.852;12.070;2023-09-12T08:42:39;22.40;99.90
16966;DHT22;8599;47.852;12.070;2023-09-12T08:45:11;22.40;99.90
16966;DHT22;8599;47.852;12.070;2023-09-12T08:47:40;22.60;99.90
16966;DHT22;8599;47.852;12.070;2023-09-12T08:50:10;22.70;99.90
16966;DHT22;8599;47.852;12.070;2023-09-12T08:52:39;22.70;99.90
16966;DHT22;8599;47.852;12.070;2023-09-12T08:55:06;22.90;99.90
16966;DHT22;8599;47.852;12.070;2023-09-12T08:57:36;23.00;99.90
16966;DHT22;8599;47.852;12.070;2023-09-12T09:00:07;23.00;99.90
16966;DHT22;8599;47.852;12.070;2023-09-12T09:02:35;23.00;99.90
16966;DHT22;8599;47.852;12.070;2023-09-12T09:05:04;23.00;99.90
16966;DHT22;8599;47.852;12.070;2023-09-12T09:07:32;23.10;99.90
16966;DHT22;8599;47.852;12.070;2023-09-12T09:10:03;23.10;99.90
16966;DHT22;8599;47.852;12.070;2023-09-12T09:12:31;23.20;99.90
16966;DHT22;8599;47.852;12.070;2023-09-12T09:14:58;23.30;99.90
16966;DHT22;8599;47.852;12.070;2023-09-12T09:17:26;23.30;99.90
16966;DHT22;8599;47.852;12.070;2023-09-12T09:19:53;23.50;99.90
16966;DHT22;8599;47.852;12.070;2023-09-12T09:22:20;23.50;99.90
16966;DHT22;8599;47.852;12.070;2023-09-12T09:24:48;23.60;99.90
16966;DHT22;8599;47.852;12.070;2023-09-12T09:27:32;23.60;99.90
16966;DHT22;8599;47.852;12.070;2023-09-12T09:29:59;23.60;99.90
16966;DHT22;8599;47.852;12.070;2023-09-12T09:32:26;23.60;99.90
16966;DHT22;8599;47.852;12.070;2023-09-12T09:34:53;23.60;99.90
16966;DHT22;8599;47.852;12.070;2023-09-12T09:37:20;23.60;99.90
16966;DHT22;8599;47.852;12.070;2023-09-12T09:39:48;23.70;99.90
16966;DHT22;8599;47.852;12.070;2023-09-12T09:42:17;23.70;99.90
16966;DHT22;8599;47.852;12.070;2023-09-12T09:44:45;23.70;99.90
16966;DHT22;8599;47.852;12.070;2023-09-12T09:47:12;23.90;99.90
16966;DHT22;8599;47.852;12.070;2023-09-12T09:49:39;23.90;99.90
16966;DHT22;8599;47.852;12.070;2023-09-12T09:52:06;24.00;99.90
16966;DHT22;8599;47.852;12.070;2023-09-12T09:54:33;24.10;99.90
16966;DHT22;8599;47.852;12.070;2023-09-12T09:57:00;24.20;99.90
16966;DHT22;8599;47.852;12.070;2023-09-12T09:59:28;24.20;99.90
16966;DHT22;8599;47.852;12.070;2023-09-12T10:01:58;24.20;99.90
16966;DHT22;8599;47.852;12.070;2023-09-12T10:04:27;24.30;99.90
16966;DHT22;8599;47.852;12.070;2023-09-12T10:06:56;24.30;99.90
16966;DHT22;8599;47.852;12.070;2023-09-12T10:09:26;24.30;99.90
16966;DHT22;8599;47.852;12.070;2023-09-12T10:11:55;24.40;99.90
16966;DHT22;8599;47.852;12.070;2023-09-12T10:14:23;24.50;99.90
16966;DHT22;8599;47.852;12.070;2023-09-12T10:16:50;24.50;99.90
16966;DHT22;8599;47.852;12.070;2023-09-12T10:19:23;24.50;99.90
16966;DHT22;8599;47.852;12.070;2023-09-12T10:21:57;24.60;99.90
16966;DHT22;8599;47.852;12.070;2023-09-12T10:24:27;24.60;99.90
16966;DHT22;8599;47.852;12.070;2023-09-12T10:26:55;24.70;99.90
16966;DHT22;8599;47.852;12.070;2023-09-12T10:29:22;24.70;99.90
16966;DHT22;8599;47.852;12.070;2023-09-12T10:31:49;24.70;99.90
16966;DHT22;8599;47.852;12.070;2023-09-12T10:34:17;24.90;99.90
16966;DHT22;8599;47.852;12.070;2023-09-12T10:36:46;24.90;99.90
16966;DHT22;8599;47.852;12.070;2023-09-12T10:39:14;24.90;99.90
16966;DHT22;8599;47.852;12.070;2023-09-12T10:41:41;25.00;99.90
16966;DHT22;8599;47.852;12.070;2023-09-12T10:44:10;25.00;99.90
16966;DHT22;8599;47.852;12.070;2023-09-12T10:46:39;25.10;99.90
16966;DHT22;8599;47.852;12.070;2023-09-12T10:49:07;25.10;99.90
16966;DHT22;8599;47.852;12.070;2023-09-12T10:51:38;25.20;99.90
16966;DHT22;8599;47.852;12.070;2023-09-12T10:54:06;25.30;99.90
16966;DHT22;8599;47.852;12.070;2023-09-12T10:56:34;25.30;99.90
16966;DHT22;8599;47.852;12.070;2023-09-12T10:59:13;25.30;99.90
16966;DHT22;8599;47.852;12.070;2023-09-12T11:01:42;25.40;99.90
16966;DHT22;8599;47.852;12.070;2023-09-12T11:04:33;25.40;99.90
16966;DHT22;8599;47.852;12.070;2023-09-12T11:07:00;25.60;99.90
16966;DHT22;8599;47.852;12.070;2023-09-12T11:09:29;25.70;99.90
16966;DHT22;8599;47.852;12.070;2023-09-12T11:11:58;25.70;99.90
16966;DHT22;8599;47.852;12.070;2023-09-12T11:14:25;25.80;99.90
16966;DHT22;8599;47.852;12.070;2023-09-12T11:17:22;25.80;99.90
16966;DHT22;8599;47.852;12.070;2023-09-12T11:19:50;25.90;99.90
16966;DHT22;8599;47.852;12.070;2023-09-12T11:22:23;25.90;99.90
16966;DHT22;8599;47.852;12.070;2023-09-12T11:24:51;25.90;99.90
16966;DHT22;8599;47.852;12.070;2023-09-12T11:27:19;26.10;99.90
16966;DHT22;8599;47.852;12.070;2023-09-12T11:29:46;26.10;99.90
16966;DHT22;8599;47.852;12.070;2023-09-12T11:32:26;26.20;99.90
16966;DHT22;8599;47.852;12.070;2023-09-12T11:34:54;26.30;99.90
16966;DHT22;8599;47.852;12.070;2023-09-12T11:37:23;26.40;99.90
16966;DHT22;8599;47.852;12.070;2023-09-12T11:39:52;26.40;99.90
16966;DHT22;8599;47.852;12.070;2023-09-12T11:42:19;26.40;99.90
16966;DHT22;8599;47.852;12.070;2023-09-12T11:44:49;26.40;99.90
16966;DHT22;8599;47.852;12.070;2023-09-12T11:47:17;26.30;99.90
16966;DHT22;8599;47.852;12.070;2023-09-12T11:49:44;26.40;99.90
16966;DHT22;8599;47.852;12.070;2023-09-12T11:52:12;26.50;99.90
16966;DHT22;8599;47.852;12.070;2023-09-12T11:54:40;26.70;99.90
16966;DHT22;8599;47.852;12.070;2023-09-12T11:57:09;26.80;99.90
16966;DHT22;8599;47.852;12.070;2023-09-12T11:59:37;27.00;99.90
16966;DHT22;8599;47.852;12.070;2023-09-12T12:02:07;27.00;99.90
16966;DHT22;8599;47.852;12.070;2023-09-12T12:04:34;27.10;99.90
16966;DHT22;8599;47.852;12.070;2023-09-12T12:07:02;27.20;99.90
16966;DHT22;8599;47.852;12.070;2023-09-12T12:09:30;27.30;99.90
16966;DHT22;8599;47.852;12.070;2023-09-12T12:12:04;27.40;99.90
16966;DHT22;8599;47.852;12.070;2023-09-12T12:14:35;27.50;99.90
16966;DHT22;8599;47.852;12.070;2023-09-12T12:17:06;27.70;99.90
16966;DHT22;8599;47.852;12.070;2023-09-12T12:19:34;27.90;99.90
16966;DHT22;8599;47.852;12.070;2023-09-12T12:22:02;28.20;99.90
16966;DHT22;8599;47.852;12.070;2023-09-12T12:24:37;28.20;99.90
16966;DHT22;8599;47.852;12.070;2023-09-12T12:27:04;28.00;99.90
16966;DHT22;8599;47.852;12.070;2023-09-12T12:29:31;27.90;99.90
16966;DHT22;8599;47.852;12.070;2023-09-12T12:32:01;27.80;99.90
16966;DHT22;8599;47.852;12.070;2023-09-12T12:34:28;27.80;99.90
16966;DHT22;8599;47.852;12.070;2023-09-12T12:36:55;27.70;99.90
16966;DHT22;8599;47.852;12.070;2023-09-12T12:39:22;27.60;99.90
16966;DHT22;8599;47.852;12.070;2023-09-12T12:41:51;27.70;99.90
16966;DHT22;8599;47.852;12.070;2023-09-12T12:44:18;27.80;99.90
16966;DHT22;8599;47.852;12.070;2023-09-12T12:46:49;27.90;99.90
16966;DHT22;8599;47.852;12.070;2023-09-12T12:49:17;28.00;99.90
16966;DHT22;8599;47.852;12.070;2023-09-12T12:51:45;28.00;99.90
16966;DHT22;8599;47.852;12.070;2023-09-12T12:54:13;27.90;99.90
16966;DHT22;8599;47.852;12.070;2023-09-12T12:56:40;27.90;99.90
16966;DHT22;8599;47.852;12.070;2023-09-12T12:59:08;28.00;99.90
16966;DHT22;8599;47.852;12.070;2023-09-12T13:01:36;28.20;99.90
16966;DHT22;8599;47.852;12.070;2023-09-12T13:04:05;28.50;99.90
16966;DHT22;8599;47.852;12.070;2023-09-12T13:06:33;28.70;99.90
16966;DHT22;8599;47.852;12.070;2023-09-12T13:09:02;28.80;99.90
16966;DHT22;8599;47.852;12.070;2023-09-12T13:11:31;29.00;99.90
16966;DHT22;8599;47.852;12.070;2023-09-12T13:14:00;29.30;99.90
16966;DHT22;8599;47.852;12.070;2023-09-12T13:16:27;29.30;99.90
16966;DHT22;8599;47.852;12.070;2023-09-12T13:18:54;29.30;99.90
16966;DHT22;8599;47.852;12.070;2023-09-12T13:21:21;29.40;99.90
16966;DHT22;8599;47.852;12.070;2023-09-12T13:23:49;29.60;99.90
16966;DHT22;8599;47.852;12.070;2023-09-12T13:26:16;29.70;99.90
16966;DHT22;8599;47.852;12.070;2023-09-12T13:28:43;29.90;99.90
16966;DHT22;8599;47.852;12.070;2023-09-12T13:31:10;30.00;99.90
16966;DHT22;8599;47.852;12.070;2023-09-12T13:33:37;29.90;99.90
16966;DHT22;8599;47.852;12.070;2023-09-12T13:36:04;29.90;99.90
16966;DHT22;8599;47.852;12.070;2023-09-12T13:38:31;29.90;99.90
16966;DHT22;8599;47.852;12.070;2023-09-12T13:40:59;30.10;99.90
16966;DHT22;8599;47.852;12.070;2023-09-12T13:43:26;30.10;99.90
16966;DHT22;8599;47.852;12.070;2023-09-12T13:45:53;30.00;99.90
16966;DHT22;8599;47.852;12.070;2023-09-12T13:48:20;30.00;99.90
16966;DHT22;8599;47.852;12.070;2023-09-12T13:50:47;29.90;99.90
16966;DHT22;8599;47.852;12.070;2023-09-12T13:53:14;30.00;99.90
16966;DHT22;8599;47.852;12.070;2023-09-12T13:55:41;30.00;99.90
16966;DHT22;8599;47.852;12.070;2023-09-12T13:58:09;30.20;99.90
16966;DHT22;8599;47.852;12.070;2023-09-12T14:00:36;30.40;99.90
16966;DHT22;8599;47.852;12.070;2023-09-12T14:03:03;30.60;99.90
16966;DHT22;8599;47.852;12.070;2023-09-12T14:05:30;30.70;99.90
16966;DHT22;8599;47.852;12.070;2023-09-12T14:07:57;30.70;99.90
16966;DHT22;8599;47.852;12.070;2023-09-12T14:10:23;30.80;99.90
16966;DHT22;8599;47.852;12.070;2023-09-12T14:12:50;30.80;99.90
16966;DHT22;8599;47.852;12.070;2023-09-12T14:15:18;31.00;99.90
16966;DHT22;8599;47.852;12.070;2023-09-12T14:17:45;31.10;99.90
16966;DHT22;8599;47.852;12.070;2023-09-12T14:20:12;31.10;99.90
16966;DHT22;8599;47.852;12.070;2023-09-12T14:22:41;31.20;99.90
16966;DHT22;8599;47.852;12.070;2023-09-12T14:25:08;31.20;99.90
16966;DHT22;8599;47.852;12.070;2023-09-12T14:27:40;30.80;99.60
16966;DHT22;8599;47.852;12.070;2023-09-12T14:30:08;30.90;99.40
16966;DHT22;8599;47.852;12.070;2023-09-12T14:32:36;31.00;99.50
16966;DHT22;8599;47.852;12.070;2023-09-12T14:35:04;31.30;98.90
16966;DHT22;8599;47.852;12.070;2023-09-12T14:37:31;31.50;98.60
16966;DHT22;8599;47.852;12.070;2023-09-12T14:39:58;31.80;98.00
16966;DHT22;8599;47.852;12.070;2023-09-12T14:42:25;32.10;97.20
16966;DHT22;8599;47.852;12.070;2023-09-12T14:44:54;32.20;96.70
16966;DHT22;8599;47.852;12.070;2023-09-12T14:47:21;32.60;95.90
16966;DHT22;8599;47.852;12.070;2023-09-12T14:49:49;33.10;95.70
16966;DHT22;8599;47.852;12.070;2023-09-12T14:52:16;33.50;94.40
16966;DHT22;8599;47.852;12.070;2023-09-12T14:54:43;33.80;93.80
16966;DHT22;8599;47.852;12.070;2023-09-12T14:57:10;33.60;93.00
16966;DHT22;8599;47.852;12.070;2023-09-12T14:59:37;33.30;91.90
16966;DHT22;8599;47.852;12.070;2023-09-12T15:02:03;32.90;92.80
16966;DHT22;8599;47.852;12.070;2023-09-12T15:04:30;33.00;93.60
16966;DHT22;8599;47.852;12.070;2023-09-12T15:06:58;33.30;93.60
16966;DHT22;8599;47.852;12.070;2023-09-12T15:09:25;33.30;93.10
16966;DHT22;8599;47.852;12.070;2023-09-12T15:11:52;33.50;93.50
16966;DHT22;8599;47.852;12.070;2023-09-12T15:14:19;33.60;93.30
16966;DHT22;8599;47.852;12.070;2023-09-12T15:16:45;33.40;92.70
16966;DHT22;8599;47.852;12.070;2023-09-12T15:19:12;33.20;93.20
16966;DHT22;8599;47.852;12.070;2023-09-12T15:21:39;33.00;93.40
16966;DHT22;8599;47.852;12.070;2023-09-12T15:24:08;32.70;93.20
16966;DHT22;8599;47.852;12.070;2023-09-12T15:26:35;32.50;93.50
16966;DHT22;8599;47.852;12.070;2023-09-12T15:29:02;32.40;94.40
16966;DHT22;8599;47.852;12.070;2023-09-12T15:31:28;32.20;94.60
16966;DHT22;8599;47.852;12.070;2023-09-12T15:33:55;32.20;94.50
16966;DHT22;8599;47.852;12.070;2023-09-12T15:36:22;31.40;95.00